createdAt,value
2023-04-23T00:01:46.872Z,100367.66
2023-04-23T00:04:19.562Z,100380.88
2023-04-23T00:06:49.789Z,100367.31
2023-04-23T00:09:20.970Z,100371.13
2023-04-23T00:11:50.887Z,100364.06
2023-04-23T00:14:20.785Z,100360.59
2023-04-23T00:16:53.963Z,100362.72
2023-04-23T00:19:24.269Z,100356.44
2023-04-23T00:21:53.670Z,100357.75
2023-04-23T00:24:22.994Z,100350.81
2023-04-23T00:26:53.898Z,100352.47
2023-04-23T00:29:23.424Z,100357.59
2023-04-23T00:31:54.384Z,100357.13
2023-04-23T00:34:24.146Z,100346.06
2023-04-23T00:36:53.912Z,100353.81
2023-04-23T00:39:23.704Z,100357.47
2023-04-23T00:41:54.616Z,100353.81
2023-04-23T00:44:24.329Z,100351.38
2023-04-23T00:46:56.331Z,100359.63
2023-04-23T00:49:26.298Z,100367.38
2023-04-23T00:51:56.902Z,100357.31
2023-04-23T00:54:26.256Z,100367.84
2023-04-23T00:57:01.953Z,100352.00
2023-04-23T00:59:31.678Z,100352.84
2023-04-23T01:02:08.668Z,100348.41
2023-04-23T01:04:39.474Z,100349.91
2023-04-23T01:07:08.801Z,100347.56
2023-04-23T01:09:56.881Z,100345.94
2023-04-23T01:12:26.371Z,100351.34
2023-04-23T01:14:55.729Z,100352.34
2023-04-23T01:17:26.866Z,100347.88
2023-04-23T01:19:56.479Z,100350.38
2023-04-23T01:22:27.563Z,100353.84
2023-04-23T01:24:59.507Z,100357.94
2023-04-23T01:27:30.588Z,100354.63
2023-04-23T01:30:00.796Z,100351.69
2023-04-23T01:32:30.380Z,100343.94
2023-04-23T01:34:59.904Z,100349.25
2023-04-23T01:37:31.531Z,100340.31
2023-04-23T01:40:01.474Z,100350.88
2023-04-23T01:43:09.982Z,100344.28
2023-04-23T01:45:39.675Z,100344.91
2023-04-23T01:48:09.016Z,100352.03
2023-04-23T01:51:29.388Z,100348.72
2023-04-23T01:58:32.070Z,100353.00
2023-04-23T02:01:01.304Z,100352.81
2023-04-23T02:03:34.084Z,100347.56
2023-04-23T02:06:05.078Z,100371.28
2023-04-23T02:08:42.710Z,100385.06
2023-04-23T02:11:11.914Z,100385.38
2023-04-23T02:13:42.828Z,100388.59
2023-04-23T02:16:13.104Z,100394.34
2023-04-23T02:18:42.543Z,100402.63
2023-04-23T02:21:13.213Z,100411.78
2023-04-23T02:23:49.953Z,100409.59
2023-04-23T02:26:20.121Z,100407.16
2023-04-23T02:28:51.218Z,100412.91
2023-04-23T02:31:21.490Z,100417.94
2023-04-23T02:33:53.638Z,100429.38
2023-04-23T02:36:23.496Z,100436.16
2023-04-23T02:38:53.929Z,100431.91
2023-04-23T02:41:25.484Z,100429.41
2023-04-23T02:43:56.286Z,100427.69
2023-04-23T02:46:26.422Z,100436.56
2023-04-23T02:48:56.916Z,100428.25
2023-04-23T02:51:27.538Z,100433.00
2023-04-23T02:54:07.828Z,100428.19
2023-04-23T02:56:37.681Z,100431.50
2023-04-23T02:59:11.464Z,100427.91
2023-04-23T03:01:41.633Z,100430.81
2023-04-23T03:04:13.845Z,100429.59
2023-04-23T03:06:44.393Z,100425.53
2023-04-23T03:09:13.976Z,100430.88
2023-04-23T03:11:51.480Z,100436.66
2023-04-23T03:14:22.247Z,100430.88
2023-04-23T03:16:58.030Z,100435.63
2023-04-23T03:19:27.550Z,100435.22
2023-04-23T03:21:56.929Z,100443.03
2023-04-23T03:24:26.153Z,100436.41
2023-04-23T03:27:11.128Z,100449.25
2023-04-23T03:29:41.884Z,100446.81
2023-04-23T03:32:11.447Z,100448.59
2023-04-23T03:34:41.204Z,100454.56
2023-04-23T03:37:13.217Z,100450.50
2023-04-23T03:39:43.700Z,100458.44
2023-04-23T03:42:13.996Z,100465.19
2023-04-23T03:44:46.960Z,100460.50
2023-04-23T03:47:16.443Z,100459.00
2023-04-23T03:49:46.075Z,100458.84
2023-04-23T03:52:16.412Z,100454.59
2023-04-23T03:54:46.104Z,100460.66
2023-04-23T03:57:20.313Z,100457.78
2023-04-23T04:00:11.824Z,100456.69
2023-04-23T04:02:45.172Z,100455.84
2023-04-23T04:05:16.358Z,100452.13
2023-04-23T04:07:45.755Z,100456.69
2023-04-23T04:10:50.195Z,100448.22
2023-04-23T04:13:19.786Z,100465.09
2023-04-23T04:15:50.706Z,100458.00
2023-04-23T04:18:21.050Z,100458.72
2023-04-23T04:20:56.844Z,100471.28
2023-04-23T04:23:27.033Z,100471.03
2023-04-23T04:25:57.702Z,100471.84
2023-04-23T04:28:58.368Z,100477.38
2023-04-23T04:31:29.259Z,100477.34
2023-04-23T04:33:59.033Z,100470.97
2023-04-23T04:36:28.973Z,100472.53
2023-04-23T04:38:59.631Z,100474.56
2023-04-23T04:41:29.020Z,100484.16
2023-04-23T04:43:58.566Z,100474.56
2023-04-23T04:46:31.951Z,100483.72
2023-04-23T04:49:01.558Z,100471.84
2023-04-23T04:51:30.790Z,100484.00
2023-04-23T04:54:26.320Z,100475.69
2023-04-23T04:56:55.573Z,100473.72
2023-04-23T04:59:24.900Z,100483.41
2023-04-23T05:01:57.733Z,100480.63
2023-04-23T05:04:27.343Z,100487.09
2023-04-23T05:06:58.106Z,100489.63
2023-04-23T05:09:28.197Z,100495.28
2023-04-23T05:11:59.703Z,100492.34
2023-04-23T05:14:29.022Z,100505.69
2023-04-23T05:17:01.215Z,100516.09
2023-04-23T05:19:33.027Z,100510.88
2023-04-23T05:22:03.850Z,100508.38
2023-04-23T05:24:35.284Z,100519.72
2023-04-23T05:27:04.868Z,100518.47
2023-04-23T05:29:34.170Z,100520.13
2023-04-23T05:32:05.195Z,100513.69
2023-04-23T05:34:40.451Z,100515.16
2023-04-23T05:37:11.032Z,100527.03
2023-04-23T05:39:46.587Z,100532.72
2023-04-23T05:42:16.052Z,100521.50
2023-04-23T05:44:53.336Z,100527.47
2023-04-23T05:47:25.035Z,100525.38
2023-04-23T05:49:56.716Z,100535.06
2023-04-23T05:52:26.170Z,100534.06
2023-04-23T05:54:58.885Z,100539.25
2023-04-23T05:57:29.187Z,100539.34
2023-04-23T05:59:59.971Z,100539.47
2023-04-23T06:02:31.301Z,100544.44
2023-04-23T06:05:01.095Z,100535.75
2023-04-23T06:07:31.861Z,100540.66
2023-04-23T06:10:01.468Z,100545.72
2023-04-23T06:12:33.312Z,100541.38
2023-04-23T06:15:02.576Z,100542.53
2023-04-23T06:17:49.674Z,100544.91
2023-04-23T06:20:19.160Z,100540.47
2023-04-23T06:22:50.874Z,100532.03
2023-04-23T06:25:20.079Z,100540.09
2023-04-23T06:27:50.016Z,100540.31
2023-04-23T06:30:23.568Z,100536.25
2023-04-23T06:33:06.378Z,100540.75
2023-04-23T06:35:35.546Z,100529.13
2023-04-23T06:38:04.747Z,100526.41
2023-04-23T06:40:34.173Z,100531.06
2023-04-23T06:43:05.651Z,100524.88
2023-04-23T06:46:12.317Z,100537.84
2023-04-23T06:48:42.977Z,100533.00
2023-04-23T06:51:18.500Z,100520.16
2023-04-23T06:53:49.258Z,100531.19
2023-04-23T06:56:18.815Z,100523.88
2023-04-23T06:58:48.161Z,100523.06
2023-04-23T07:01:23.556Z,100520.41
2023-04-23T07:03:54.792Z,100523.03
2023-04-23T07:06:24.219Z,100523.34
2023-04-23T07:08:54.738Z,100527.50
2023-04-23T07:11:25.290Z,100534.22
2023-04-23T07:13:54.635Z,100528.47
2023-04-23T07:16:26.188Z,100528.72
2023-04-23T07:18:59.403Z,100530.09
2023-04-23T07:21:29.879Z,100520.41
2023-04-23T07:28:27.697Z,100524.16
2023-04-23T07:31:05.627Z,100526.53
2023-04-23T07:43:41.713Z,100520.31
2023-04-23T07:51:32.634Z,100498.66
2023-04-23T07:58:28.263Z,100500.88
2023-04-23T08:00:58.802Z,100498.53
2023-04-23T08:03:29.987Z,100498.47
2023-04-23T08:06:01.072Z,100493.50
2023-04-23T08:08:30.287Z,100493.22
2023-04-23T08:11:02.839Z,100488.59
2023-04-23T08:14:40.810Z,100475.06
2023-04-23T08:17:16.707Z,100479.41
2023-04-23T08:20:03.730Z,100477.44
2023-04-23T08:22:37.467Z,100479.00
2023-04-23T08:25:08.880Z,100475.75
2023-04-23T08:31:41.177Z,100486.69
2023-04-23T08:34:15.062Z,100480.41
2023-04-23T08:37:44.566Z,100482.06
2023-04-23T08:40:14.301Z,100479.13
2023-04-23T08:43:12.940Z,100473.81
2023-04-23T08:45:43.255Z,100472.34
2023-04-23T08:48:12.828Z,100476.28
2023-04-23T08:50:44.902Z,100463.56
2023-04-23T08:53:20.889Z,100462.72
2023-04-23T08:55:51.795Z,100467.69
2023-04-23T09:02:49.654Z,100487.09
2023-04-23T09:05:21.865Z,100484.75
2023-04-23T09:07:55.791Z,100484.44
2023-04-23T09:10:25.241Z,100492.31
2023-04-23T09:12:54.718Z,100476.78
2023-04-23T09:15:24.175Z,100484.91
2023-04-23T09:17:55.646Z,100479.72
2023-04-23T09:20:27.334Z,100470.84
2023-04-23T09:22:58.768Z,100464.81
2023-04-23T09:25:28.762Z,100459.63
2023-04-23T09:28:01.385Z,100454.88
2023-04-23T09:30:32.270Z,100440.63
2023-04-23T09:33:02.070Z,100445.22
2023-04-23T09:35:35.585Z,100442.50
2023-04-23T09:38:10.508Z,100439.94
2023-04-23T09:40:39.790Z,100441.19
2023-04-23T09:43:12.715Z,100431.16
2023-04-23T09:45:50.927Z,100439.88
2023-04-23T09:48:21.980Z,100427.25
2023-04-23T09:50:51.554Z,100424.88
2023-04-23T09:53:23.334Z,100429.38
2023-04-23T09:55:54.971Z,100435.78
2023-04-23T09:58:28.864Z,100434.09
2023-04-23T10:01:09.181Z,100428.38
2023-04-23T10:03:43.192Z,100429.50
2023-04-23T10:06:25.763Z,100430.13
2023-04-23T10:09:08.008Z,100435.81
2023-04-23T10:11:42.746Z,100443.75
2023-04-23T10:14:12.533Z,100429.06
2023-04-23T10:16:49.097Z,100425.22
2023-04-23T10:19:23.665Z,100424.94
2023-04-23T10:22:05.126Z,100418.19
2023-04-23T10:24:41.812Z,100425.25
2023-04-23T10:27:28.499Z,100425.41
2023-04-23T10:30:08.692Z,100430.84
2023-04-23T10:32:38.809Z,100411.25
2023-04-23T10:35:09.821Z,100411.69
2023-04-23T10:37:40.557Z,100408.09
2023-04-23T10:40:17.168Z,100414.63
2023-04-23T10:42:47.323Z,100413.41
2023-04-23T10:47:50.712Z,100418.78
2023-04-23T10:50:22.590Z,100421.00
2023-04-23T10:52:54.697Z,100425.22
2023-04-23T10:55:29.291Z,100406.41
2023-04-23T10:58:04.345Z,100407.03
2023-04-23T11:00:46.438Z,100404.06
2023-04-23T11:03:43.069Z,100398.47
2023-04-23T11:06:16.610Z,100397.06
2023-04-23T11:08:56.841Z,100394.25
2023-04-23T11:11:41.103Z,100387.44
2023-04-23T11:14:15.601Z,100396.03
2023-04-23T11:16:45.283Z,100388.50
2023-04-23T11:19:18.361Z,100387.00
2023-04-23T11:21:59.831Z,100387.78
2023-04-23T11:24:30.963Z,100401.56
2023-04-23T11:27:03.086Z,100401.81
2023-04-23T11:29:32.462Z,100410.59
2023-04-23T11:32:05.469Z,100395.09
2023-04-23T11:34:35.175Z,100396.81
2023-04-23T11:37:05.988Z,100397.63
2023-04-23T11:39:35.197Z,100405.34
2023-04-23T11:42:09.165Z,100391.69
2023-04-23T11:44:41.856Z,100393.69
2023-04-23T11:47:12.824Z,100394.59
2023-04-23T11:49:44.378Z,100391.75
2023-04-23T11:52:15.709Z,100377.34
2023-04-23T11:54:45.449Z,100368.16
2023-04-23T11:57:17.684Z,100364.31
2023-04-23T11:59:46.890Z,100372.25
2023-04-23T12:02:16.584Z,100362.50
2023-04-23T12:04:45.876Z,100351.44
2023-04-23T12:07:25.859Z,100353.41
2023-04-23T12:10:01.108Z,100365.31
2023-04-23T12:12:37.001Z,100357.81
2023-04-23T12:15:07.237Z,100349.47
2023-04-23T12:17:36.636Z,100349.22
2023-04-23T12:20:22.505Z,100356.34
2023-04-23T12:22:52.116Z,100358.00
2023-04-23T12:25:24.799Z,100351.00
2023-04-23T12:28:01.096Z,100360.91
2023-04-23T12:30:35.373Z,100352.75
2023-04-23T12:33:06.669Z,100349.16
2023-04-23T12:35:43.113Z,100342.16
2023-04-23T12:38:24.520Z,100347.34
2023-04-23T12:40:54.166Z,100336.72
2023-04-23T12:43:25.951Z,100339.81
2023-04-23T12:45:57.567Z,100346.03
2023-04-23T12:48:26.861Z,100338.44
2023-04-23T12:51:01.111Z,100331.88
2023-04-23T12:53:37.268Z,100336.38
2023-04-23T12:56:10.672Z,100332.28
2023-04-23T12:58:45.925Z,100336.59
2023-04-23T13:01:21.563Z,100332.31
2023-04-23T13:03:52.250Z,100328.41
2023-04-23T13:06:27.059Z,100335.03
2023-04-23T13:09:03.983Z,100329.22
2023-04-23T13:11:39.612Z,100335.63
2023-04-23T13:14:18.874Z,100331.94
2023-04-23T13:16:49.731Z,100328.47
2023-04-23T13:19:31.192Z,100318.50
2023-04-23T13:22:07.357Z,100323.59
2023-04-23T13:24:41.718Z,100322.59
2023-04-23T13:27:19.823Z,100319.41
2023-04-23T13:29:56.172Z,100314.38
2023-04-23T13:32:34.862Z,100303.59
2023-04-23T13:35:21.886Z,100308.09
2023-04-23T13:38:10.849Z,100297.16
2023-04-23T13:40:46.061Z,100297.94
2023-04-23T13:43:19.330Z,100293.53
2023-04-23T13:45:55.885Z,100288.22
2023-04-23T13:48:32.290Z,100292.84
2023-04-23T13:51:13.529Z,100294.69
2023-04-23T13:53:55.221Z,100278.88
2023-04-23T13:56:32.462Z,100260.75
2023-04-23T13:59:18.803Z,100259.84
2023-04-23T14:01:53.818Z,100257.31
2023-04-23T14:04:32.707Z,100245.84
2023-04-23T14:07:13.915Z,100243.75
2023-04-23T14:09:53.375Z,100241.75
2023-04-23T14:12:27.286Z,100241.13
2023-04-23T14:14:56.522Z,100235.19
2023-04-23T14:17:27.185Z,100226.19
2023-04-23T14:19:56.333Z,100220.00
2023-04-23T14:22:59.167Z,100214.91
2023-04-23T14:25:36.545Z,100224.53
2023-04-23T14:28:24.771Z,100224.84
2023-04-23T14:30:57.666Z,100220.41
2023-04-23T14:33:28.640Z,100213.47
2023-04-23T14:35:58.043Z,100224.34
2023-04-23T14:38:27.674Z,100224.84
2023-04-23T14:40:57.728Z,100224.38
2023-04-23T14:43:27.170Z,100228.69
2023-04-23T14:45:56.358Z,100230.53
2023-04-23T14:48:34.721Z,100234.53
2023-04-23T14:51:05.204Z,100253.44
2023-04-23T14:53:55.319Z,100266.44
2023-04-23T14:56:27.238Z,100264.84
2023-04-23T14:59:00.786Z,100275.22
2023-04-23T15:01:32.437Z,100277.66
2023-04-23T15:04:06.771Z,100281.09
2023-04-23T15:06:36.693Z,100296.63
2023-04-23T15:13:51.269Z,100294.31
2023-04-23T15:19:15.031Z,100256.75
2023-04-23T15:21:47.275Z,100273.22
2023-04-23T15:24:37.685Z,100259.38
2023-04-23T15:27:08.321Z,100250.97
2023-04-23T15:29:48.062Z,100236.72
2023-04-23T15:32:18.966Z,100250.06
2023-04-23T15:34:54.411Z,100240.34
2023-04-23T15:37:24.805Z,100228.16
2023-04-23T15:39:54.047Z,100228.91
2023-04-23T15:42:24.965Z,100228.88
2023-04-23T15:44:55.823Z,100228.03
2023-04-23T15:47:25.838Z,100216.22
2023-04-23T15:50:01.377Z,100209.41
2023-04-23T15:52:31.115Z,100206.19
2023-04-23T15:55:10.728Z,100206.47
2023-04-23T15:57:39.932Z,100207.94
2023-04-23T16:00:22.256Z,100212.34
2023-04-23T16:02:55.133Z,100205.47
2023-04-23T16:05:26.264Z,100192.66
2023-04-23T16:07:55.420Z,100187.50
2023-04-23T16:10:29.604Z,100194.53
2023-04-23T16:12:59.729Z,100192.13
2023-04-23T16:15:29.277Z,100189.69
2023-04-23T16:18:00.315Z,100183.03
2023-04-23T16:20:31.394Z,100184.84
2023-04-23T16:23:01.527Z,100187.50
2023-04-23T16:25:34.441Z,100182.66
2023-04-23T16:28:06.976Z,100181.72
2023-04-23T16:30:38.367Z,100174.25
2023-04-23T16:33:11.716Z,100176.75
2023-04-23T16:35:42.866Z,100173.25
2023-04-23T16:38:16.333Z,100178.53
2023-04-23T16:40:47.335Z,100185.69
2023-04-23T16:43:16.757Z,100184.72
2023-04-23T16:45:46.497Z,100187.78
2023-04-23T16:48:19.932Z,100193.78
2023-04-23T16:50:51.718Z,100198.44
2023-04-23T16:53:21.296Z,100199.31
2023-04-23T16:55:51.652Z,100208.03
2023-04-23T16:58:22.918Z,100196.88
2023-04-23T17:00:56.166Z,100197.56
2023-04-23T17:03:27.028Z,100201.03
2023-04-23T17:06:12.286Z,100214.00
2023-04-23T17:08:43.329Z,100213.09
2023-04-23T17:11:12.801Z,100219.84
2023-04-23T17:13:44.452Z,100220.50
2023-04-23T17:16:13.945Z,100213.09
2023-04-23T17:18:45.762Z,100217.19
2023-04-23T17:21:16.697Z,100213.72
2023-04-23T17:23:46.407Z,100212.91
2023-04-23T17:26:17.072Z,100216.72
2023-04-23T17:28:46.458Z,100209.47
2023-04-23T17:31:16.335Z,100213.56
2023-04-23T17:33:49.463Z,100200.06
2023-04-23T17:36:20.581Z,100205.34
2023-04-23T17:38:50.129Z,100197.91
2023-04-23T17:41:19.449Z,100211.28
2023-04-23T17:43:49.374Z,100208.28
2023-04-23T17:46:18.836Z,100210.75
2023-04-23T17:48:48.741Z,100215.53
2023-04-23T17:51:19.533Z,100215.53
2023-04-23T17:53:50.865Z,100217.38
2023-04-23T17:56:20.323Z,100211.44
2023-04-23T17:58:49.581Z,100203.19
2023-04-23T18:01:19.379Z,100200.75
2023-04-23T18:03:49.233Z,100186.75
2023-04-23T18:06:21.008Z,100191.34
2023-04-23T18:08:50.463Z,100182.31
2023-04-23T18:11:20.816Z,100174.06
2023-04-23T18:13:53.495Z,100172.06
2023-04-23T18:16:22.868Z,100172.91
2023-04-23T18:18:52.707Z,100177.66
2023-04-23T18:21:31.251Z,100173.91
2023-04-23T18:24:02.228Z,100178.66
2023-04-23T18:26:38.786Z,100186.00
2023-04-23T18:29:08.407Z,100184.34
2023-04-23T18:31:38.139Z,100184.50
2023-04-23T18:34:11.521Z,100189.44
2023-04-23T18:36:45.077Z,100181.50
2023-04-23T18:39:18.003Z,100181.66
2023-04-23T18:41:48.684Z,100185.25
2023-04-23T18:44:18.485Z,100190.00
2023-04-23T18:46:48.455Z,100194.78
2023-04-23T18:49:45.628Z,100191.78
2023-04-23T18:52:16.490Z,100195.88
2023-04-23T18:54:45.766Z,100198.56
2023-04-23T18:57:15.048Z,100186.72
2023-04-23T18:59:44.695Z,100185.25
2023-04-23T19:02:21.415Z,100185.56
2023-04-23T19:04:54.401Z,100180.44
2023-04-23T19:07:25.679Z,100188.03
2023-04-23T19:09:54.998Z,100176.47
2023-04-23T19:12:24.388Z,100180.09
2023-04-23T19:14:53.878Z,100179.09
2023-04-23T19:17:26.662Z,100174.59
2023-04-23T19:19:57.597Z,100174.72
2023-04-23T19:22:29.246Z,100169.16
2023-04-23T19:24:58.726Z,100174.03
2023-04-23T19:27:29.158Z,100172.38
2023-04-23T19:30:00.887Z,100169.91
2023-04-23T19:32:31.024Z,100167.41
2023-04-23T19:35:00.811Z,100163.19
2023-04-23T19:37:32.176Z,100155.31
2023-04-23T19:40:02.564Z,100165.16
2023-04-23T19:42:35.064Z,100149.38
2023-04-23T19:45:04.733Z,100143.97
2023-04-23T19:47:38.609Z,100137.00
2023-04-23T19:50:14.958Z,100135.22
2023-04-23T19:52:45.898Z,100136.81
2023-04-23T19:55:18.116Z,100131.34
2023-04-23T19:57:49.507Z,100131.53
2023-04-23T20:00:19.263Z,100127.22
2023-04-23T20:02:50.004Z,100118.56
2023-04-23T20:05:20.303Z,100125.28
2023-04-23T20:07:51.279Z,100126.78
2023-04-23T20:10:20.872Z,100121.50
2023-04-23T20:13:00.250Z,100117.66
2023-04-23T20:15:29.510Z,100118.16
2023-04-23T20:17:58.931Z,100118.16
2023-04-23T20:20:28.467Z,100121.16
2023-04-23T20:23:03.517Z,100117.53
2023-04-23T20:25:33.749Z,100111.66
2023-04-23T20:28:04.409Z,100112.44
2023-04-23T20:30:33.644Z,100106.53
2023-04-23T20:33:03.346Z,100097.50
2023-04-23T20:35:33.728Z,100090.16
2023-04-23T20:38:04.924Z,100086.16
2023-04-23T20:40:34.741Z,100084.25
2023-04-23T20:43:04.599Z,100082.72
2023-04-23T20:45:34.840Z,100079.78
2023-04-23T20:48:05.499Z,100087.44
2023-04-23T20:50:35.182Z,100080.38
2023-04-23T20:53:06.982Z,100090.06
2023-04-23T20:55:36.945Z,100077.28
2023-04-23T20:58:25.273Z,100067.47
2023-04-23T21:00:55.315Z,100059.41
2023-04-23T21:03:33.157Z,100057.09
2023-04-23T21:06:03.066Z,100053.13
2023-04-23T21:08:42.900Z,100049.22
2023-04-23T21:11:14.775Z,100033.91
2023-04-23T21:13:44.641Z,100028.19
2023-04-23T21:16:15.195Z,100031.75
2023-04-23T21:18:44.881Z,100024.03
2023-04-23T21:21:14.639Z,100017.97
2023-04-23T21:23:45.443Z,100012.88
2023-04-23T21:26:15.202Z,100005.00
2023-04-23T21:28:50.621Z,99994.63
2023-04-23T21:31:29.017Z,99989.09
2023-04-23T21:34:00.581Z,99988.25
2023-04-23T21:36:30.249Z,99980.88
2023-04-23T21:39:01.896Z,99974.47
2023-04-23T21:41:31.829Z,99971.81
2023-04-23T21:44:01.086Z,99973.13
2023-04-23T21:46:34.263Z,99964.44
2023-04-23T21:49:06.017Z,99959.69
2023-04-23T21:51:38.607Z,99957.38
2023-04-23T21:54:09.400Z,99953.59
2023-04-23T21:56:39.222Z,99948.19
2023-04-23T21:59:08.656Z,99948.34
2023-04-23T22:01:39.361Z,99941.44
2023-04-23T22:04:08.882Z,99928.00
2023-04-23T22:06:38.561Z,99929.19
2023-04-23T22:09:10.519Z,99916.50
2023-04-23T22:11:40.950Z,99901.22
2023-04-23T22:14:11.706Z,99901.88
2023-04-23T22:16:41.356Z,99901.56
2023-04-23T22:19:12.165Z,99897.28
2023-04-23T22:21:41.548Z,99898.91
2023-04-23T22:24:13.393Z,99897.78
2023-04-23T22:26:44.486Z,99888.72
2023-04-23T22:29:17.986Z,99889.72
2023-04-23T22:31:47.463Z,99886.41
2023-04-23T22:34:19.335Z,99873.22
2023-04-23T22:36:48.959Z,99866.66
2023-04-23T22:39:19.923Z,99859.91
2023-04-23T22:41:49.134Z,99862.88
2023-04-23T22:44:18.667Z,99853.16
2023-04-23T22:46:47.983Z,99860.25
2023-04-23T22:49:19.540Z,99849.69
2023-04-23T22:51:54.106Z,99842.47
2023-04-23T22:54:24.922Z,99835.69
2023-04-23T22:56:54.189Z,99844.09
2023-04-23T22:59:25.819Z,99839.38
2023-04-23T23:01:54.992Z,99834.25
2023-04-23T23:04:24.473Z,99854.63
2023-04-23T23:06:53.733Z,99845.94
2023-04-23T23:09:24.430Z,99839.66
2023-04-23T23:11:53.654Z,99840.78
2023-04-23T23:14:23.208Z,99833.22
2023-04-23T23:16:52.443Z,99828.81
2023-04-23T23:19:21.855Z,99832.94
2023-04-23T23:21:51.852Z,99833.28
2023-04-23T23:24:23.170Z,99832.31
2023-04-23T23:26:53.762Z,99840.53
2023-04-23T23:29:22.991Z,99834.44
2023-04-23T23:31:52.562Z,99842.50
2023-04-23T23:34:22.263Z,99842.16
2023-04-23T23:36:51.900Z,99839.72
2023-04-23T23:39:21.278Z,99838.09
2023-04-23T23:41:52.116Z,99846.81
2023-04-23T23:44:21.711Z,99838.06
2023-04-23T23:46:52.097Z,99847.41
2023-04-23T23:49:21.931Z,99844.94
2023-04-23T23:51:51.367Z,99850.38
2023-04-23T23:54:20.935Z,99860.75
2023-04-23T23:56:50.488Z,99856.19
2023-04-23T23:59:21.252Z,99849.63
